Onde está Póvoa da Isenta en Portugal?

 

Póvoa da Isenta está situado na região Santarem em Portugal!

Buscar o nome de uma cidade:

Povrh Biljega, Povia, Poverstnoye, Povodnevo, Póvoa da Atalaia

Aqui você vai encontrar a localização de Póvoa da Isenta em um mapa.
Para ver como ele atualmente parece, abaixo estão algumas fotos da região, com webcams online.
Você também pode encontrar a distância para as principais cidades da região e de cidades do resto do Portugal.

Cidades do mundo
Cidades em Portugal que também são encontradas em outros países do mundo.


Onde está Póvoa da Isenta no mapa?




Webcams perto Póvoa da Isenta

Benavente › North-East: Santarém - AIrport, METAR: BENAV 180005Z 36004KT 17/14 Q1015.


Benavente › North-East: Santarém - AIrport, METAR: BENAV 180005Z 36004KT 17/14 Q1015 - Dia
Actual
Benavente › North-East: Santarém - AIrport, METAR: BENAV 180005Z 36004KT 17/14 Q1015 - Actual

Nossa Senhora do Populo, Coto e Sao Gregorio: Caldas da Rainha.


Nossa Senhora do Populo, Coto e Sao Gregorio: Caldas da Rainha - Dia
Actual
Nossa Senhora do Populo, Coto e Sao Gregorio: Caldas da Rainha - Actual

Sao Pedro de Tomar › South-West: Tomar -> SW.


Sao Pedro de Tomar › South-West: Tomar -> SW - Dia
Actual
Sao Pedro de Tomar › South-West: Tomar -> SW - Actual

Webcams provided by webcams.travel


Distâncias

Onde está Póvoa da Isenta em relação a outros lugares?

Top 10 cidades em Santarem e distância de Póvoa da Isenta.

Cidade#Populaçãokmmilhas
Santarém12938553
Entroncamento2198873723
Tomar3191685132
Torres Novas4145263421
Samora Correia5141543421
Abrantes6136465534
Ourém7127294830
Rio Maior8120642113
Fátima9117984528
Almeirim1011556117

Top 10 cidades em Portugal e distância de Póvoa da Isenta.

Cidade # Populaçãokmmilhas
Lisbon15177986641
Porto2249630216134
Amadora31788566641
Braga4121393261162
Setúbal51171097748
Coimbra610658011370
Queluz71033986842
Funchal8980411036644
Vila Nova de Gaia970810212132
Loures10662305635



Info

Estatística e Geografia

Portugal é composta de 15299 cidades em 20 regiões.

A região de Santarem tem 1174 cidades.

Póvoa da Isenta é o número 853 na região Santarem.

A cidade é o número 10725 na Portugal.

Onde está Póvoa da Isenta en Portugal?